createdAt,value
2018-12-10T00:01:11.648Z,2.60
2018-12-10T00:03:39.214Z,2.80
2018-12-10T00:06:06.811Z,2.70
2018-12-10T00:08:34.444Z,2.70
2018-12-10T00:11:02.026Z,2.70
2018-12-10T00:13:29.629Z,2.60
2018-12-10T00:15:57.488Z,2.60
2018-12-10T00:18:25.120Z,2.60
2018-12-10T00:20:52.722Z,2.40
2018-12-10T00:23:20.398Z,2.60
2018-12-10T00:25:48.410Z,2.60
2018-12-10T00:28:16.231Z,2.60
2018-12-10T00:30:43.859Z,2.60
2018-12-10T00:33:11.440Z,2.60
2018-12-10T00:35:39.031Z,2.60
2018-12-10T00:38:06.742Z,2.50
2018-12-10T00:40:34.484Z,2.50
2018-12-10T00:43:02.112Z,2.50
2018-12-10T00:45:29.763Z,4.70
2018-12-10T00:47:58.282Z,2.40
2018-12-10T00:50:25.915Z,2.40
2018-12-10T00:52:53.586Z,2.40
2018-12-10T00:55:21.504Z,2.40
2018-12-10T00:57:49.465Z,2.40
2018-12-10T01:00:17.354Z,2.40
2018-12-10T01:02:45.141Z,2.40
2018-12-10T01:05:12.917Z,2.30
2018-12-10T01:07:40.496Z,2.30
2018-12-10T01:10:08.306Z,2.30
2018-12-10T01:12:35.881Z,2.30
2018-12-10T01:15:04.501Z,1.80
2018-12-10T01:17:32.088Z,2.30
2018-12-10T01:19:59.678Z,2.30
2018-12-10T01:22:27.314Z,2.30
2018-12-10T01:24:54.956Z,2.30
2018-12-10T01:29:50.242Z,2.20
2018-12-10T01:32:18.000Z,2.30
2018-12-10T01:34:45.583Z,2.20
2018-12-10T01:37:13.205Z,2.20
2018-12-10T01:39:41.140Z,2.20
2018-12-10T01:42:08.803Z,2.20
2018-12-10T01:44:36.408Z,2.20
2018-12-10T01:49:31.699Z,2.20
2018-12-10T01:54:27.018Z,2.20
2018-12-10T01:56:54.915Z,2.20
2018-12-10T01:59:22.570Z,2.20
2018-12-10T02:01:50.144Z,1.30
2018-12-10T02:04:18.499Z,2.10
2018-12-10T02:06:46.085Z,2.10
2018-12-10T02:09:13.676Z,2.10
2018-12-10T02:11:41.265Z,2.10
2018-12-10T02:14:08.882Z,2.10
2018-12-10T02:16:36.531Z,2.00
2018-12-10T02:19:04.170Z,2.00
2018-12-10T02:23:59.430Z,2.00
2018-12-10T02:26:27.008Z,2.00
2018-12-10T02:29:00.206Z,2.00
2018-12-10T02:38:50.822Z,2.00
2018-12-10T02:41:18.692Z,2.00
2018-12-10T02:46:13.932Z,2.00
2018-12-10T02:51:09.175Z,2.00
2018-12-10T02:53:36.775Z,2.00
2018-12-10T02:58:31.995Z,1.90
2018-12-10T03:05:54.816Z,1.90
2018-12-10T03:08:22.429Z,1.80
2018-12-10T03:10:50.013Z,1.80
2018-12-10T03:18:12.903Z,1.80
2018-12-10T03:20:40.507Z,1.80
2018-12-10T03:25:36.653Z,1.80
2018-12-10T03:28:04.309Z,1.80
2018-12-10T03:30:31.920Z,1.80
2018-12-10T03:35:27.268Z,1.70
2018-12-10T03:37:54.897Z,1.80
2018-12-10T03:40:22.514Z,1.70
2018-12-10T03:42:50.320Z,1.70
2018-12-10T03:45:18.292Z,1.70
2018-12-10T03:50:13.533Z,1.70
2018-12-10T03:52:41.094Z,1.70
2018-12-10T03:55:08.692Z,1.70
2018-12-10T03:57:36.524Z,1.70
2018-12-10T04:00:04.360Z,1.70
2018-12-10T04:02:31.978Z,1.70
2018-12-10T04:04:59.760Z,1.70
2018-12-10T04:07:27.345Z,1.70
2018-12-10T04:09:54.951Z,1.70
2018-12-10T04:12:22.638Z,1.60
2018-12-10T04:14:50.256Z,1.70
2018-12-10T04:17:18.165Z,1.70
2018-12-10T04:19:45.802Z,1.60
2018-12-10T04:22:14.108Z,1.60
2018-12-10T04:24:41.726Z,1.60
2018-12-10T04:27:09.306Z,1.60
2018-12-10T04:29:36.932Z,1.60
2018-12-10T04:32:04.512Z,1.60
2018-12-10T04:34:32.103Z,1.60
2018-12-10T04:37:01.386Z,1.60
2018-12-10T04:39:29.027Z,1.60
2018-12-10T04:41:56.618Z,1.60
2018-12-10T04:44:24.432Z,1.60
2018-12-10T04:46:52.068Z,1.60
2018-12-10T04:49:19.707Z,1.50
2018-12-10T04:51:47.393Z,1.50
2018-12-10T04:54:15.074Z,1.50
2018-12-10T04:56:42.791Z,1.50
2018-12-10T04:59:10.393Z,1.50
2018-12-10T05:01:37.980Z,1.50
2018-12-10T05:04:05.586Z,1.50
2018-12-10T05:06:33.201Z,1.50
2018-12-10T05:09:01.728Z,1.50
2018-12-10T05:11:29.347Z,1.50
2018-12-10T05:13:56.918Z,1.50
2018-12-10T05:16:24.490Z,1.50
2018-12-10T05:18:52.074Z,1.40
2018-12-10T05:21:19.667Z,1.50
2018-12-10T05:23:47.405Z,1.50
2018-12-10T05:26:15.009Z,1.50
2018-12-10T05:28:42.564Z,1.50
2018-12-10T05:31:10.140Z,1.40
2018-12-10T05:33:37.716Z,1.50
2018-12-10T05:36:05.320Z,1.50
2018-12-10T05:38:32.894Z,1.50
2018-12-10T05:41:00.588Z,1.40
2018-12-10T05:43:28.184Z,1.40
2018-12-10T05:45:56.059Z,1.40
2018-12-10T05:48:23.647Z,1.40
2018-12-10T05:50:51.222Z,1.40
2018-12-10T05:53:19.053Z,1.40
2018-12-10T05:55:46.612Z,1.40
2018-12-10T05:58:14.219Z,1.40
2018-12-10T06:00:41.804Z,1.40
2018-12-10T06:03:09.390Z,1.40
2018-12-10T06:05:36.975Z,1.40
2018-12-10T06:08:04.584Z,1.40
2018-12-10T06:10:32.154Z,1.40
2018-12-10T06:12:59.808Z,1.40
2018-12-10T06:15:27.509Z,1.40
2018-12-10T06:17:55.106Z,1.40
2018-12-10T06:20:22.687Z,1.40
2018-12-10T06:22:50.289Z,1.40
2018-12-10T06:25:18.883Z,1.40
2018-12-10T06:27:46.521Z,1.40
2018-12-10T06:30:14.089Z,1.40
2018-12-10T06:32:41.675Z,1.40
2018-12-10T06:35:09.287Z,2.70
2018-12-10T06:37:37.758Z,1.40
2018-12-10T06:40:05.763Z,1.40
2018-12-10T06:42:33.348Z,1.40
2018-12-10T06:45:01.094Z,1.50
2018-12-10T06:49:56.431Z,1.50
2018-12-10T06:54:51.686Z,1.60
2018-12-10T06:57:19.444Z,1.50
2018-12-10T06:59:47.029Z,1.60
2018-12-10T07:02:14.619Z,1.60
2018-12-10T07:04:42.195Z,1.60
2018-12-10T07:07:09.785Z,1.60
2018-12-10T07:09:37.507Z,1.60
2018-12-10T07:12:05.220Z,1.60
2018-12-10T07:14:32.845Z,1.60
2018-12-10T07:17:00.683Z,1.70
2018-12-10T07:19:28.326Z,1.70
2018-12-10T07:21:56.117Z,1.70
2018-12-10T07:24:23.727Z,1.70
2018-12-10T07:26:51.300Z,1.70
2018-12-10T07:29:19.979Z,1.70
2018-12-10T07:31:47.760Z,1.70
2018-12-10T07:34:15.317Z,1.70
2018-12-10T07:36:42.890Z,1.70
2018-12-10T07:39:10.477Z,1.70
2018-12-10T07:41:38.115Z,1.80
2018-12-10T07:44:05.699Z,1.80
2018-12-10T07:46:33.302Z,1.80
2018-12-10T07:51:29.060Z,1.80
2018-12-10T07:53:56.636Z,1.80
2018-12-10T07:56:28.982Z,1.80
2018-12-10T07:58:53.839Z,1.80
2018-12-10T08:01:21.397Z,1.80
2018-12-10T08:03:49.111Z,1.80
2018-12-10T08:06:16.673Z,1.80
2018-12-10T08:08:44.262Z,1.80
2018-12-10T08:11:11.848Z,1.80
2018-12-10T08:13:39.415Z,1.80
2018-12-10T08:16:06.996Z,1.80
2018-12-10T08:23:30.678Z,1.80
2018-12-10T08:28:26.279Z,1.90
2018-12-10T08:40:44.263Z,1.90
2018-12-10T08:43:11.872Z,1.90
2018-12-10T08:45:39.499Z,1.90
2018-12-10T08:48:07.085Z,1.90
2018-12-10T08:50:34.861Z,1.90
2018-12-10T08:53:02.778Z,1.90
2018-12-10T08:57:57.941Z,1.90
2018-12-10T09:00:25.660Z,1.80
2018-12-10T09:02:53.246Z,1.90
2018-12-10T09:05:20.815Z,1.80
2018-12-10T09:07:48.852Z,1.90
2018-12-10T09:10:16.766Z,1.90
2018-12-10T09:12:47.174Z,1.70
2018-12-10T09:15:13.969Z,1.90
2018-12-10T09:17:41.604Z,1.80
2018-12-10T09:20:09.210Z,1.80
2018-12-10T09:22:36.792Z,1.80
2018-12-10T09:25:05.411Z,1.80
2018-12-10T09:27:33.019Z,1.90
2018-12-10T09:30:00.629Z,1.80
2018-12-10T09:32:28.208Z,1.90
2018-12-10T09:34:55.802Z,1.80
2018-12-10T09:37:23.401Z,1.80
2018-12-10T09:39:51.027Z,1.90
2018-12-10T09:42:18.905Z,1.80
2018-12-10T09:44:46.527Z,1.80
2018-12-10T09:47:14.097Z,1.90
2018-12-10T09:49:41.688Z,1.80
2018-12-10T09:54:37.087Z,1.90
2018-12-10T09:57:04.987Z,1.90
2018-12-10T09:59:32.568Z,2.00
2018-12-10T10:04:27.785Z,2.10
2018-12-10T10:06:55.373Z,2.20
2018-12-10T10:09:22.984Z,2.20
2018-12-10T10:11:50.818Z,2.30
2018-12-10T10:14:18.438Z,2.30
2018-12-10T10:16:46.030Z,2.30
2018-12-10T10:19:13.635Z,2.40
2018-12-10T10:21:41.211Z,2.40
2018-12-10T10:24:08.776Z,2.40
2018-12-10T10:26:36.379Z,2.50
2018-12-10T10:29:04.208Z,2.50
2018-12-10T10:31:31.795Z,2.50
2018-12-10T10:33:59.393Z,2.50
2018-12-10T10:36:26.979Z,2.60
2018-12-10T10:38:54.560Z,2.50
2018-12-10T10:41:22.130Z,2.50
2018-12-10T10:43:49.725Z,2.50
2018-12-10T10:46:18.248Z,2.50
2018-12-10T10:48:45.879Z,2.60
2018-12-10T10:51:13.463Z,2.60
2018-12-10T10:53:41.149Z,2.60
2018-12-10T10:56:08.919Z,2.60
2018-12-10T10:58:36.548Z,2.60
2018-12-10T11:01:09.942Z,2.60
2018-12-10T11:03:39.047Z,2.60
2018-12-10T11:06:07.068Z,2.60
2018-12-10T11:08:34.777Z,2.60
2018-12-10T11:11:02.549Z,2.70
2018-12-10T11:13:30.223Z,2.70
2018-12-10T11:15:57.817Z,2.70
2018-12-10T11:18:25.427Z,2.70
2018-12-10T11:20:53.053Z,2.70
2018-12-10T11:23:20.614Z,3.80
2018-12-10T11:25:48.468Z,2.70
2018-12-10T11:28:16.054Z,2.70
2018-12-10T11:30:43.767Z,2.70
2018-12-10T11:33:11.390Z,2.70
2018-12-10T11:35:38.976Z,2.70
2018-12-10T11:38:06.568Z,2.70
2018-12-10T11:40:34.189Z,2.70
2018-12-10T11:43:01.770Z,2.70
2018-12-10T11:45:29.362Z,2.60
2018-12-10T11:47:56.983Z,2.60
2018-12-10T11:50:24.582Z,2.70
2018-12-10T11:52:52.204Z,2.70
2018-12-10T11:55:20.171Z,2.60
2018-12-10T11:57:48.124Z,2.70
2018-12-10T12:00:15.873Z,2.70
2018-12-10T12:02:43.522Z,2.80
2018-12-10T12:05:11.144Z,2.70
2018-12-10T12:07:38.720Z,2.80
2018-12-10T12:10:06.837Z,2.60
2018-12-10T12:12:34.418Z,2.80
2018-12-10T12:15:02.053Z,2.70
2018-12-10T12:17:29.608Z,2.70
2018-12-10T12:19:57.190Z,2.70
2018-12-10T12:22:24.796Z,2.70
2018-12-10T12:24:52.597Z,2.70
2018-12-10T12:27:20.188Z,2.70
2018-12-10T12:29:48.530Z,2.80
2018-12-10T12:32:16.111Z,2.80
2018-12-10T12:34:44.566Z,2.70
2018-12-10T12:37:12.243Z,2.70
2018-12-10T12:39:39.917Z,2.70
2018-12-10T12:42:07.579Z,2.70
2018-12-10T12:44:35.242Z,2.70
2018-12-10T12:49:30.570Z,2.70
2018-12-10T12:54:25.747Z,2.70
2018-12-10T12:59:21.199Z,2.70
2018-12-10T13:01:49.509Z,2.70
2018-12-10T13:06:45.050Z,2.70
2018-12-10T13:09:12.655Z,2.70
2018-12-10T13:11:40.269Z,2.70
2018-12-10T13:14:07.852Z,2.70
2018-12-10T13:16:35.433Z,2.70
2018-12-10T13:19:03.016Z,2.70
2018-12-10T13:21:30.759Z,2.70
2018-12-10T13:23:58.349Z,2.70
2018-12-10T13:26:25.966Z,2.70
2018-12-10T13:28:53.544Z,2.70
2018-12-10T13:31:21.126Z,2.70
2018-12-10T13:33:48.913Z,2.70
2018-12-10T13:36:16.550Z,2.70
2018-12-10T13:38:44.114Z,2.70
2018-12-10T13:41:11.700Z,2.70
2018-12-10T13:43:39.299Z,2.70
2018-12-10T13:48:34.448Z,2.70
2018-12-10T14:00:52.608Z,2.70
2018-12-10T14:03:20.210Z,2.70
2018-12-10T14:05:47.972Z,2.70
2018-12-10T14:08:15.614Z,2.70
2018-12-10T14:13:10.808Z,2.80
2018-12-10T14:27:56.500Z,2.70
2018-12-10T14:30:24.465Z,2.70
2018-12-10T14:32:52.027Z,2.70
2018-12-10T14:37:47.372Z,2.70
2018-12-10T14:40:15.017Z,2.70
2018-12-10T14:42:50.556Z,2.70
2018-12-10T14:45:18.589Z,2.70
2018-12-10T14:47:49.721Z,2.70
2018-12-10T14:50:17.368Z,2.70
2018-12-10T14:52:44.992Z,2.70
2018-12-10T14:55:12.637Z,2.70
2018-12-10T14:57:40.222Z,2.70
2018-12-10T15:00:09.663Z,0.90
2018-12-10T15:02:37.259Z,2.70
2018-12-10T15:05:06.306Z,2.70
2018-12-10T15:07:33.911Z,2.70
2018-12-10T15:10:01.546Z,2.60
2018-12-10T15:12:29.161Z,2.70
2018-12-10T15:14:57.690Z,2.70
2018-12-10T15:17:25.314Z,2.70
2018-12-10T15:19:52.881Z,2.70
2018-12-10T15:24:48.652Z,2.70
2018-12-10T15:27:16.276Z,2.70
2018-12-10T15:29:43.835Z,2.70
2018-12-10T15:32:11.428Z,2.70
2018-12-10T15:37:06.913Z,2.70
2018-12-10T15:44:29.649Z,2.70
2018-12-10T15:46:57.298Z,2.70
2018-12-10T15:51:52.499Z,2.70
2018-12-10T15:56:47.944Z,2.70
2018-12-10T16:01:43.287Z,2.70
2018-12-10T16:09:06.966Z,2.70
2018-12-10T16:11:34.587Z,2.70
2018-12-10T16:14:02.160Z,2.70
2018-12-10T16:16:29.799Z,2.70
2018-12-10T16:18:57.372Z,2.70
2018-12-10T16:21:24.980Z,2.70
2018-12-10T16:23:52.552Z,2.70
2018-12-10T16:26:20.153Z,2.70
2018-12-10T16:28:48.770Z,2.70
2018-12-10T16:31:16.353Z,2.70
2018-12-10T16:33:44.649Z,2.70
2018-12-10T16:38:40.618Z,2.70
2018-12-10T16:43:35.807Z,2.70
2018-12-10T16:46:03.520Z,4.10
2018-12-10T16:48:31.091Z,2.70
2018-12-10T16:50:58.701Z,2.70
2018-12-10T16:53:26.667Z,2.70
2018-12-10T16:55:54.279Z,2.70
2018-12-10T16:58:21.911Z,2.70
2018-12-10T17:03:17.814Z,2.70
2018-12-10T17:08:13.008Z,2.70
2018-12-10T17:10:40.607Z,2.70
2018-12-10T17:13:08.267Z,2.70
2018-12-10T17:15:35.875Z,2.70
2018-12-10T17:18:03.477Z,2.70
2018-12-10T17:20:31.128Z,2.70
2018-12-10T17:22:58.787Z,2.70
2018-12-10T17:25:26.371Z,2.70
2018-12-10T17:27:54.334Z,2.70
2018-12-10T17:30:22.061Z,2.70
2018-12-10T17:32:49.641Z,2.80
2018-12-10T17:35:17.695Z,2.80
2018-12-10T17:37:45.568Z,2.80
2018-12-10T17:40:13.496Z,2.80
2018-12-10T17:42:41.308Z,2.80
2018-12-10T17:45:09.357Z,2.80
2018-12-10T17:47:37.287Z,2.80
2018-12-10T17:55:02.267Z,2.90
2018-12-10T17:57:29.858Z,2.90
2018-12-10T17:59:57.423Z,2.80
2018-12-10T18:02:25.052Z,2.90
2018-12-10T18:04:52.945Z,2.90
2018-12-10T18:09:50.581Z,2.90
2018-12-10T18:12:18.764Z,2.80
2018-12-10T18:14:46.485Z,2.80
2018-12-10T18:17:14.144Z,2.80
2018-12-10T18:22:09.497Z,2.80
2018-12-10T18:27:04.648Z,2.80
2018-12-10T18:29:32.273Z,2.80
2018-12-10T18:31:59.861Z,2.80
2018-12-10T18:34:27.471Z,2.80
2018-12-10T18:36:55.090Z,2.80
2018-12-10T18:39:22.715Z,2.80
2018-12-10T18:44:19.424Z,2.90
2018-12-10T18:46:47.058Z,2.60
2018-12-10T18:51:42.302Z,2.90
2018-12-10T18:54:09.939Z,2.80
2018-12-10T18:56:37.544Z,2.80
2018-12-10T18:59:05.138Z,2.80
2018-12-10T19:01:32.948Z,2.90
2018-12-10T19:04:00.532Z,2.90
2018-12-10T19:06:28.268Z,2.90
2018-12-10T19:08:56.398Z,2.90
2018-12-10T19:11:24.207Z,2.90
2018-12-10T19:13:51.790Z,2.90
2018-12-10T19:16:20.328Z,2.90
2018-12-10T19:18:48.386Z,2.90
2018-12-10T19:21:15.986Z,3.00
2018-12-10T19:23:43.611Z,3.00
2018-12-10T19:28:38.811Z,3.00
2018-12-10T19:36:02.058Z,2.90
2018-12-10T19:38:29.635Z,2.90
2018-12-10T19:40:57.288Z,2.90
2018-12-10T19:45:53.494Z,4.20
2018-12-10T19:53:17.357Z,2.90
2018-12-10T19:55:45.136Z,2.90
2018-12-10T20:00:40.312Z,2.90
2018-12-10T20:03:08.016Z,3.00
2018-12-10T20:10:36.690Z,3.00
2018-12-10T20:13:04.280Z,2.90
2018-12-10T20:17:59.470Z,2.90
2018-12-10T20:20:27.040Z,2.90
2018-12-10T20:22:54.657Z,3.00
2018-12-10T20:25:22.313Z,2.90
2018-12-10T20:27:49.994Z,2.90
2018-12-10T20:30:17.889Z,3.00
2018-12-10T20:32:45.494Z,3.00
2018-12-10T20:35:13.303Z,3.00
2018-12-10T20:37:40.948Z,3.00
2018-12-10T20:40:08.854Z,3.00
2018-12-10T20:42:36.493Z,3.00
2018-12-10T20:45:05.567Z,3.00
2018-12-10T20:47:33.204Z,3.00
2018-12-10T20:50:00.825Z,4.90
2018-12-10T20:52:28.419Z,1.90
2018-12-10T20:54:56.020Z,3.00
2018-12-10T20:57:23.613Z,3.00
2018-12-10T20:59:51.251Z,3.00
2018-12-10T21:02:19.130Z,2.90
2018-12-10T21:04:46.717Z,2.90
2018-12-10T21:07:14.356Z,2.90
2018-12-10T21:09:42.058Z,2.90
2018-12-10T21:12:10.099Z,2.90
2018-12-10T21:17:05.397Z,2.90
2018-12-10T21:19:33.101Z,2.90
2018-12-10T21:22:00.962Z,2.90
2018-12-10T21:24:30.481Z,2.90
2018-12-10T21:26:58.057Z,2.90
2018-12-10T21:29:25.650Z,2.80
2018-12-10T21:31:53.246Z,2.90
2018-12-10T21:34:20.818Z,2.90
2018-12-10T21:36:49.595Z,2.90
2018-12-10T21:39:17.267Z,2.80
2018-12-10T21:41:44.981Z,2.90
2018-12-10T21:44:12.547Z,2.80
2018-12-10T21:46:40.149Z,2.90
2018-12-10T21:49:08.963Z,2.90
2018-12-10T21:56:31.871Z,2.90
2018-12-10T21:58:59.447Z,2.90
2018-12-10T22:01:27.039Z,2.90
2018-12-10T22:03:54.674Z,2.90
2018-12-10T22:06:22.322Z,2.90
2018-12-10T22:08:49.896Z,2.90
2018-12-10T22:11:17.977Z,2.90
2018-12-10T22:13:45.565Z,3.00
2018-12-10T22:16:13.128Z,3.00
2018-12-10T22:18:40.713Z,3.00
2018-12-10T22:21:08.395Z,3.00
2018-12-10T22:23:36.157Z,3.00
2018-12-10T22:26:03.743Z,3.00
2018-12-10T22:28:31.374Z,3.00
2018-12-10T22:33:26.844Z,3.00
2018-12-10T22:35:54.507Z,3.10
2018-12-10T22:38:22.243Z,3.00
2018-12-10T22:40:49.833Z,3.00
2018-12-10T22:43:17.538Z,3.10
2018-12-10T22:45:45.207Z,3.10
2018-12-10T22:48:12.796Z,3.10
2018-12-10T22:50:40.389Z,3.10
2018-12-10T22:53:08.001Z,3.10
2018-12-10T22:55:35.595Z,3.10
2018-12-10T22:58:03.190Z,3.10
2018-12-10T23:03:04.200Z,3.10
2018-12-10T23:05:31.756Z,3.10
2018-12-10T23:07:59.343Z,3.10
2018-12-10T23:10:26.969Z,3.10
2018-12-10T23:12:54.820Z,3.10
2018-12-10T23:15:22.473Z,3.10
2018-12-10T23:17:50.075Z,3.10
2018-12-10T23:22:45.560Z,3.10
2018-12-10T23:25:13.204Z,3.10
2018-12-10T23:27:40.809Z,3.10
2018-12-10T23:30:08.621Z,3.10
2018-12-10T23:32:36.209Z,3.10
2018-12-10T23:35:04.318Z,3.10
2018-12-10T23:37:31.937Z,3.10
2018-12-10T23:39:59.528Z,3.00
2018-12-10T23:42:27.141Z,3.10
2018-12-10T23:44:55.687Z,3.10
2018-12-10T23:47:23.274Z,3.10
2018-12-10T23:49:50.862Z,3.10
2018-12-10T23:52:18.577Z,3.10
2018-12-10T23:54:46.181Z,3.10
2018-12-10T23:57:13.799Z,3.10
